Time;durP1;ratioP1;P1;durP2;ratioP2;P2;SDS_P1;SDS_P2;PMS_P1;PMS_P2;Temp;Humidity;BMP_temperature;BMP_pressure;BME280_temperature;BME280_humidity;BME280_pressure;Samples;Min_cycle;Max_cycle;Signal;HPM_P1;HPM_P2
2022/09/28 00:00:31;;;;;;;54.20;23.35;;;;;;;;;;6166938;28;20053;-59
2022/09/28 00:03:57;;;;;;;56.58;23.50;;;;;;;;;;6163973;28;20577;-58
2022/09/28 00:06:57;;;;;;;69.55;32.03;;;;;;;;;;6164204;28;20391;-58
2022/09/28 00:09:58;;;;;;;68.03;27.25;;;;;;;;;;6165190;28;20053;-59
2022/09/28 00:13:00;;;;;;;61.00;26.73;;;;;;;;;;6166003;28;20042;-58
2022/09/28 00:16:03;;;;;;;72.38;31.42;;;;;;;;;;6163404;28;20549;-58
2022/09/28 00:19:05;;;;;;;65.95;27.58;;;;;;;;;;6163052;28;20054;-58
2022/09/28 00:22:06;;;;;;;67.53;27.95;;;;;;;;;;6164059;28;20046;-60
2022/09/28 00:25:07;;;;;;;66.95;27.13;;;;;;;;;;6161558;28;22178;-61
2022/09/28 00:28:07;;;;;;;74.30;29.80;;;;;;;;;;6164802;28;20449;-58
2022/09/28 00:31:08;;;;;;;66.88;26.77;;;;;;;;;;6165379;28;20051;-59
2022/09/28 00:34:09;;;;;;;59.50;22.90;;;;;;;;;;6166760;28;20050;-58
2022/09/28 00:37:09;;;;;;;59.53;24.00;;;;;;;;;;6164460;28;20054;-60
2022/09/28 00:40:10;;;;;;;74.85;23.60;;;;;;;;;;6164751;28;20046;-61
2022/09/28 00:43:18;;;;;;;67.25;25.17;;;;;;;;;;6163145;28;20051;-60
2022/09/28 00:46:33;;;;;;;81.82;32.20;;;;;;;;;;6161725;28;20064;-58
2022/09/28 00:49:41;;;;;;;82.40;31.92;;;;;;;;;;6167528;28;20046;-60
2022/09/28 00:53:02;;;;;;;90.70;35.97;;;;;;;;;;6169085;28;20051;-58
2022/09/28 00:56:11;;;;;;;112.68;45.67;;;;;;;;;;6170497;28;20058;-59
2022/09/28 00:59:13;;;;;;;87.35;31.90;;;;;;;;;;6168479;28;20876;-59
2022/09/28 01:02:13;;;;;;;81.60;30.57;;;;;;;;;;6164570;28;20161;-58
2022/09/28 01:05:16;;;;;;;80.22;29.30;;;;;;;;;;6163055;28;20174;-59
2022/09/28 01:08:20;;;;;;;76.03;26.10;;;;;;;;;;6163725;28;20031;-60
2022/09/28 01:11:20;;;;;;;64.38;24.75;;;;;;;;;;6164414;28;20133;-60
2022/09/28 01:14:24;;;;;;;59.05;24.92;;;;;;;;;;6167165;28;20117;-58
2022/09/28 01:17:35;;;;;;;50.80;21.10;;;;;;;;;;6163709;28;20499;-61
2022/09/28 01:20:50;;;;;;;70.70;34.13;;;;;;;;;;6162320;28;20077;-61
2022/09/28 01:24:15;;;;;;;60.72;24.85;;;;;;;;;;6162195;28;20070;-58
2022/09/28 01:27:30;;;;;;;58.75;24.48;;;;;;;;;;6167416;28;20458;-57
2022/09/28 01:30:41;;;;;;;51.88;21.67;;;;;;;;;;6165481;28;20190;-57
2022/09/28 01:33:50;;;;;;;52.03;21.90;;;;;;;;;;6166839;28;20403;-60
2022/09/28 01:36:54;;;;;;;56.88;22.38;;;;;;;;;;6166277;28;20074;-61
2022/09/28 01:39:56;;;;;;;39.47;17.20;;;;;;;;;;6163504;28;20058;-59
2022/09/28 01:43:04;;;;;;;48.55;21.35;;;;;;;;;;6161677;28;20105;-59
2022/09/28 01:46:15;;;;;;;50.05;20.20;;;;;;;;;;6161556;28;20118;-59
2022/09/28 01:49:26;;;;;;;54.97;23.47;;;;;;;;;;6162402;28;20154;-59
2022/09/28 01:52:53;;;;;;;44.53;20.73;;;;;;;;;;6162291;28;20055;-59
2022/09/28 01:55:59;;;;;;;45.60;17.40;;;;;;;;;;6149123;28;20042;-58
2022/09/28 01:59:14;;;;;;;38.58;16.65;;;;;;;;;;6162883;28;20105;-58
2022/09/28 02:02:21;;;;;;;45.60;19.45;;;;;;;;;;6162246;28;20061;-59
2022/09/28 02:05:39;;;;;;;44.75;18.33;;;;;;;;;;6162708;28;20051;-59
2022/09/28 02:08:49;;;;;;;44.13;19.35;;;;;;;;;;6161388;28;20821;-60
2022/09/28 02:11:57;;;;;;;41.75;19.48;;;;;;;;;;6163511;28;20375;-58
2022/09/28 02:15:10;;;;;;;35.60;14.73;;;;;;;;;;6164232;28;20536;-57
2022/09/28 02:18:11;;;;;;;37.53;15.55;;;;;;;;;;6161860;28;20133;-60
2022/09/28 02:21:23;;;;;;;30.95;12.70;;;;;;;;;;6161447;28;20049;-58
2022/09/28 02:24:46;;;;;;;29.38;13.30;;;;;;;;;;6163231;28;20161;-57
2022/09/28 02:27:50;;;;;;;34.70;13.50;;;;;;;;;;6163014;28;20137;-59
2022/09/28 02:30:50;;;;;;;30.33;12.45;;;;;;;;;;6160893;28;20392;-60
2022/09/28 02:33:53;;;;;;;28.10;11.63;;;;;;;;;;6161558;28;20039;-60
2022/09/28 02:36:54;;;;;;;29.55;12.35;;;;;;;;;;6162078;28;20059;-58
2022/09/28 02:39:54;;;;;;;26.50;11.23;;;;;;;;;;6161153;28;20513;-57
2022/09/28 02:43:07;;;;;;;24.20;10.82;;;;;;;;;;6164054;28;20051;-57
2022/09/28 02:46:27;;;;;;;26.52;10.48;;;;;;;;;;6162666;28;20070;-58
2022/09/28 02:49:48;;;;;;;23.33;9.77;;;;;;;;;;6162673;28;20043;-57
2022/09/28 02:53:12;;;;;;;28.88;16.20;;;;;;;;;;6160565;28;20696;-60
2022/09/28 02:56:31;;;;;;;31.10;11.75;;;;;;;;;;6154440;28;20035;-58
2022/09/28 02:59:55;;;;;;;33.78;12.90;;;;;;;;;;6163467;28;20138;-57
2022/09/28 03:03:11;;;;;;;37.33;19.75;;;;;;;;;;6168004;28;20101;-58
2022/09/28 03:06:36;;;;;;;40.15;14.80;;;;;;;;;;6167996;28;20043;-61
2022/09/28 03:09:46;;;;;;;38.63;15.52;;;;;;;;;;6144402;28;20095;-58
2022/09/28 03:12:47;;;;;;;42.40;16.17;;;;;;;;;;6160814;28;20134;-60
2022/09/28 03:15:48;;;;;;;40.72;14.95;;;;;;;;;;6160991;28;20057;-58
2022/09/28 03:18:48;;;;;;;40.05;13.60;;;;;;;;;;6159530;28;20158;-59
2022/09/28 03:21:49;;;;;;;35.70;14.25;;;;;;;;;;6159941;28;20482;-58
2022/09/28 03:24:49;;;;;;;34.90;13.75;;;;;;;;;;6161830;28;20137;-59
2022/09/28 03:27:50;;;;;;;35.88;13.38;;;;;;;;;;6160331;28;20750;-57
2022/09/28 03:30:51;;;;;;;33.85;11.70;;;;;;;;;;6159073;28;20106;-58
2022/09/28 03:33:51;;;;;;;37.50;13.07;;;;;;;;;;6160954;28;20533;-57
2022/09/28 03:36:52;;;;;;;35.15;12.90;;;;;;;;;;6160024;28;20050;-57
2022/09/28 03:39:52;;;;;;;39.03;14.27;;;;;;;;;;6162355;28;20043;-58
2022/09/28 03:42:53;;;;;;;41.42;17.35;;;;;;;;;;6163380;28;20503;-58
2022/09/28 03:45:55;;;;;;;53.53;21.92;;;;;;;;;;6160624;28;20042;-59
2022/09/28 03:48:57;;;;;;;;;;;;;;;;;;6160953;28;20141;-58
2022/09/28 03:51:58;;;;;;;50.38;23.58;;;;;;;;;;6161155;28;20017;-58
2022/09/28 03:54:58;;;;;;;53.10;24.67;;;;;;;;;;6161196;28;20035;-61
2022/09/28 03:57:59;;;;;;;41.75;16.27;;;;;;;;;;6161640;28;20038;-58
2022/09/28 04:01:04;;;;;;;34.60;13.75;;;;;;;;;;6161410;28;20039;-56
2022/09/28 04:04:05;;;;;;;34.05;13.13;;;;;;;;;;6161194;28;20954;-57
2022/09/28 04:07:05;;;;;;;30.77;10.80;;;;;;;;;;6160353;28;20043;-56
2022/09/28 04:10:06;;;;;;;24.60;11.13;;;;;;;;;;6160824;28;20043;-60
2022/09/28 04:13:07;;;;;;;27.53;11.63;;;;;;;;;;6161989;28;20047;-57
2022/09/28 04:16:09;;;;;;;26.30;10.32;;;;;;;;;;6165528;28;20046;-56
2022/09/28 04:19:09;;;;;;;28.58;10.93;;;;;;;;;;6165478;28;20423;-59
2022/09/28 04:22:10;;;;;;;30.90;12.27;;;;;;;;;;6164427;28;20039;-56
2022/09/28 04:25:10;;;;;;;28.92;11.40;;;;;;;;;;6165027;28;20121;-57
2022/09/28 04:31:36;;;;;;;27.33;9.65;;;;;;;;;;6162803;28;20520;-57
2022/09/28 04:34:37;;;;;;;25.83;10.93;;;;;;;;;;6164871;28;20074;-57
2022/09/28 04:37:38;;;;;;;29.02;10.90;;;;;;;;;;6163426;28;20564;-58
2022/09/28 04:40:38;;;;;;;34.10;15.10;;;;;;;;;;6162094;28;20076;-56
2022/09/28 04:43:39;;;;;;;25.73;9.60;;;;;;;;;;6163257;28;20058;-56
2022/09/28 04:46:39;;;;;;;23.52;8.27;;;;;;;;;;6165723;28;20042;-49
2022/09/28 04:49:40;;;;;;;22.15;9.38;;;;;;;;;;6164412;28;20125;-56
2022/09/28 04:52:40;;;;;;;23.27;8.88;;;;;;;;;;6164116;28;20039;-55
2022/09/28 04:55:42;;;;;;;18.90;7.43;;;;;;;;;;6164854;28;20490;-56
2022/09/28 04:58:43;;;;;;;20.17;9.10;;;;;;;;;;6161585;28;20106;-57
2022/09/28 05:01:44;;;;;;;20.42;9.52;;;;;;;;;;6162005;28;20039;-57
2022/09/28 05:04:44;;;;;;;18.75;7.30;;;;;;;;;;6164527;28;20066;-56
2022/09/28 05:07:45;;;;;;;20.88;9.13;;;;;;;;;;6161716;28;20046;-56
2022/09/28 05:10:46;;;;;;;55.92;30.58;;;;;;;;;;6159318;28;20410;-57
2022/09/28 05:13:47;;;;;;;25.83;11.77;;;;;;;;;;6164473;28;20035;-58
2022/09/28 05:16:48;;;;;;;26.67;11.93;;;;;;;;;;6164621;28;20068;-58
2022/09/28 05:19:48;;;;;;;23.75;10.00;;;;;;;;;;6168088;28;20074;-58
2022/09/28 05:22:49;;;;;;;19.50;9.68;;;;;;;;;;6161865;28;20042;-58
2022/09/28 05:25:49;;;;;;;20.67;5.93;;;;;;;;;;6162103;28;20035;-60
2022/09/28 05:28:50;;;;;;;17.17;5.88;;;;;;;;;;6165197;28;20057;-56
2022/09/28 05:31:50;;;;;;;12.60;5.13;;;;;;;;;;6162675;28;20071;-55
2022/09/28 05:34:51;;;;;;;13.95;7.00;;;;;;;;;;6163354;28;20051;-55
2022/09/28 05:37:53;;;;;;;23.10;8.25;;;;;;;;;;6163549;28;20457;-57
2022/09/28 05:40:53;;;;;;;23.23;9.93;;;;;;;;;;6162239;28;20110;-56
2022/09/28 05:43:54;;;;;;;34.00;14.25;;;;;;;;;;6164107;28;20929;-57
2022/09/28 05:46:54;;;;;;;37.95;17.13;;;;;;;;;;6165315;28;20047;-57
2022/09/28 05:49:55;;;;;;;28.63;11.73;;;;;;;;;;6160590;28;20122;-59
2022/09/28 05:53:00;;;;;;;21.58;9.40;;;;;;;;;;6163498;28;20607;-56
2022/09/28 05:56:02;;;;;;;21.42;7.40;;;;;;;;;;6168681;28;20639;-59
2022/09/28 05:59:04;;;;;;;22.00;10.90;;;;;;;;;;6182337;28;20073;-57
2022/09/28 06:02:04;;;;;;;;;;;;;;;;;;6164467;28;20141;-58
2022/09/28 06:05:05;;;;;;;15.88;6.28;;;;;;;;;;6164433;28;19926;-57
2022/09/28 06:08:09;;;;;;;14.95;5.70;;;;;;;;;;6162506;28;20573;-57
2022/09/28 06:11:11;;;;;;;17.30;6.63;;;;;;;;;;6161604;28;20062;-58
2022/09/28 06:14:14;;;;;;;15.10;5.85;;;;;;;;;;6163692;28;20042;-58
2022/09/28 06:17:14;;;;;;;18.77;5.88;;;;;;;;;;6169117;28;20051;-59
2022/09/28 06:20:15;;;;;;;12.43;5.10;;;;;;;;;;6165772;28;20043;-59
2022/09/28 06:23:16;;;;;;;16.63;6.40;;;;;;;;;;6171972;28;20053;-57
2022/09/28 06:26:17;;;;;;;19.55;8.05;;;;;;;;;;6162677;28;20582;-57
2022/09/28 06:29:18;;;;;;;12.27;5.55;;;;;;;;;;6170205;28;20142;-61
2022/09/28 06:32:18;;;;;;;24.48;10.35;;;;;;;;;;6160000;28;20146;-54
2022/09/28 06:35:20;;;;;;;25.90;13.63;;;;;;;;;;6168010;28;20482;-55
2022/09/28 06:38:21;;;;;;;13.75;5.88;;;;;;;;;;6161276;28;20137;-56
2022/09/28 06:41:21;;;;;;;12.25;4.90;;;;;;;;;;6159868;28;20609;-53
2022/09/28 06:44:23;;;;;;;9.30;4.15;;;;;;;;;;6158303;28;20050;-55
2022/09/28 06:47:24;;;;;;;16.23;4.78;;;;;;;;;;6156193;28;20125;-55
2022/09/28 06:50:26;;;;;;;9.70;4.80;;;;;;;;;;6149447;28;20074;-57
2022/09/28 06:53:28;;;;;;;8.68;3.72;;;;;;;;;;6155276;28;20049;-58
2022/09/28 06:56:29;;;;;;;10.40;5.10;;;;;;;;;;6153372;28;20217;-54
2022/09/28 06:59:30;;;;;;;9.50;3.53;;;;;;;;;;6154727;28;20051;-62
2022/09/28 07:02:31;;;;;;;13.27;4.18;;;;;;;;;;6153230;28;20161;-61
2022/09/28 07:05:35;;;;;;;10.50;4.00;;;;;;;;;;6152571;28;20085;-60
2022/09/28 07:08:36;;;;;;;9.98;4.88;;;;;;;;;;6152418;28;20050;-56
2022/09/28 07:11:39;;;;;;;10.57;4.90;;;;;;;;;;6155556;28;20495;-59
2022/09/28 07:14:40;;;;;;;9.18;3.65;;;;;;;;;;6156612;28;20720;-56
2022/09/28 07:17:40;;;;;;;9.27;3.55;;;;;;;;;;6156379;28;20062;-60
2022/09/28 07:20:41;;;;;;;7.25;3.72;;;;;;;;;;6146198;28;20060;-60
2022/09/28 07:23:41;;;;;;;10.35;4.05;;;;;;;;;;6147969;28;20093;-57
2022/09/28 07:26:44;;;;;;;9.00;3.70;;;;;;;;;;6145485;28;20059;-59
2022/09/28 07:29:44;;;;;;;11.15;3.38;;;;;;;;;;6151448;28;20078;-58
2022/09/28 07:32:45;;;;;;;8.15;3.25;;;;;;;;;;6148687;28;20054;-59
2022/09/28 07:35:54;;;;;;;9.15;3.13;;;;;;;;;;6147917;28;20055;-55
2022/09/28 07:38:54;;;;;;;9.60;3.50;;;;;;;;;;6146355;28;20093;-58
2022/09/28 07:41:55;;;;;;;8.88;3.80;;;;;;;;;;6146910;28;20069;-57
2022/09/28 07:44:57;;;;;;;10.20;3.20;;;;;;;;;;6154612;28;20081;-58
2022/09/28 07:47:57;;;;;;;8.07;3.40;;;;;;;;;;6150500;28;20058;-55
2022/09/28 07:50:59;;;;;;;9.43;3.40;;;;;;;;;;6154930;28;20046;-61
2022/09/28 07:53:59;;;;;;;8.18;3.20;;;;;;;;;;6154102;28;20038;-57
2022/09/28 07:57:00;;;;;;;8.90;3.33;;;;;;;;;;6153852;28;20050;-55
2022/09/28 08:00:05;;;;;;;7.40;3.13;;;;;;;;;;6158848;28;20059;-59
2022/09/28 08:03:05;;;;;;;9.43;2.97;;;;;;;;;;6159999;28;20054;-59
2022/09/28 08:06:09;;;;;;;8.25;2.58;;;;;;;;;;6161472;28;20078;-60
2022/09/28 08:09:10;;;;;;;6.03;2.42;;;;;;;;;;6159381;28;20047;-60
2022/09/28 08:12:12;;;;;;;8.40;2.83;;;;;;;;;;6153400;28;20061;-61
2022/09/28 08:15:12;;;;;;;7.65;2.80;;;;;;;;;;6156173;28;20062;-59
2022/09/28 08:18:13;;;;;;;7.05;2.63;;;;;;;;;;6151554;28;20787;-62
2022/09/28 08:24:33;;;;;;;5.20;2.35;;;;;;;;;;6150671;28;20054;-58
2022/09/28 08:27:33;;;;;;;7.60;2.78;;;;;;;;;;6147890;28;20089;-55
2022/09/28 08:30:34;;;;;;;7.25;2.72;;;;;;;;;;6154737;28;20510;-58
2022/09/28 08:33:35;;;;;;;7.53;2.60;;;;;;;;;;6154676;28;20053;-60
2022/09/28 08:36:35;;;;;;;6.38;2.47;;;;;;;;;;6159488;28;20059;-60
2022/09/28 08:39:36;;;;;;;6.65;2.40;;;;;;;;;;6159454;28;20528;-60
2022/09/28 08:42:42;;;;;;;5.75;2.10;;;;;;;;;;6156173;28;20074;-62
2022/09/28 08:45:43;;;;;;;6.65;3.40;;;;;;;;;;6160105;28;20181;-61
2022/09/28 08:48:53;;;;;;;9.68;2.53;;;;;;;;;;6158827;28;20507;-62
2022/09/28 08:52:01;;;;;;;6.57;2.55;;;;;;;;;;6149038;28;20086;-60
2022/09/28 08:55:20;;;;;;;8.55;2.95;;;;;;;;;;6147861;28;20062;-60
2022/09/28 08:58:24;;;;;;;7.65;3.50;;;;;;;;;;6150926;28;20057;-60
2022/09/28 09:01:30;;;;;;;8.18;3.50;;;;;;;;;;6155552;28;20118;-54
2022/09/28 09:04:32;;;;;;;6.13;2.30;;;;;;;;;;6151819;28;20145;-57
2022/09/28 09:07:51;;;;;;;5.97;2.50;;;;;;;;;;6147096;28;20519;-59
2022/09/28 09:11:09;;;;;;;8.23;3.30;;;;;;;;;;6150004;28;20059;-59
2022/09/28 09:14:53;;;;;;;13.18;5.90;;;;;;;;;;6148659;28;20470;-62
2022/09/28 09:18:07;;;;;;;10.57;3.38;;;;;;;;;;6146243;28;20153;-61
2022/09/28 09:21:29;;;;;;;9.75;4.55;;;;;;;;;;6147222;28;20506;-61
2022/09/28 09:24:38;;;;;;;9.60;4.07;;;;;;;;;;6157028;28;20145;-58
2022/09/28 09:27:54;;;;;;;5.15;2.05;;;;;;;;;;6155226;28;20508;-61
2022/09/28 09:31:13;;;;;;;6.57;2.20;;;;;;;;;;6156162;28;20061;-59
2022/09/28 09:34:29;;;;;;;5.47;2.00;;;;;;;;;;6156444;28;21346;-58
2022/09/28 09:37:55;;;;;;;8.10;2.95;;;;;;;;;;6156661;28;20149;-59
2022/09/28 09:41:05;;;;;;;5.78;2.10;;;;;;;;;;6146900;28;20058;-61
2022/09/28 09:44:28;;;;;;;4.07;1.90;;;;;;;;;;6154503;28;20133;-58
2022/09/28 09:47:43;;;;;;;4.40;1.83;;;;;;;;;;6153795;28;20050;-59
2022/09/28 09:50:54;;;;;;;8.85;4.00;;;;;;;;;;6148016;28;20495;-61
2022/09/28 09:54:00;;;;;;;8.40;4.13;;;;;;;;;;6147173;28;20046;-57
2022/09/28 09:57:06;;;;;;;5.07;2.10;;;;;;;;;;6144259;28;20047;-61
2022/09/28 10:00:15;;;;;;;7.07;3.08;;;;;;;;;;6145295;28;20057;-57
2022/09/28 10:03:26;;;;;;;7.00;2.83;;;;;;;;;;6154953;28;20078;-61
2022/09/28 10:06:35;;;;;;;4.80;2.03;;;;;;;;;;6151373;28;20047;-59
2022/09/28 10:09:42;;;;;;;7.78;2.90;;;;;;;;;;6153500;28;20141;-57
2022/09/28 10:12:43;;;;;;;5.28;2.20;;;;;;;;;;6155320;28;20549;-59
2022/09/28 10:15:46;;;;;;;4.53;2.03;;;;;;;;;;6157296;28;20047;-60
2022/09/28 10:18:48;;;;;;;5.32;2.90;;;;;;;;;;6151721;28;20065;-61
2022/09/28 10:21:50;;;;;;;5.72;2.33;;;;;;;;;;6144972;28;20142;-61
2022/09/28 10:24:55;;;;;;;5.95;2.60;;;;;;;;;;6150586;28;20046;-59
2022/09/28 10:27:58;;;;;;;14.00;2.50;;;;;;;;;;6156748;28;20051;-58
2022/09/28 10:30:59;;;;;;;4.53;2.22;;;;;;;;;;6163833;28;20585;-57
2022/09/28 10:34:00;;;;;;;4.97;2.30;;;;;;;;;;6163388;28;20038;-53
2022/09/28 10:37:04;;;;;;;6.95;2.55;;;;;;;;;;6164172;28;20129;-60
2022/09/28 10:40:29;;;;;;;16.08;6.97;;;;;;;;;;6163970;28;20054;-62
2022/09/28 10:43:37;;;;;;;7.97;3.40;;;;;;;;;;6160306;28;20065;-59
2022/09/28 10:46:38;;;;;;;6.40;2.90;;;;;;;;;;6164824;28;20046;-62
2022/09/28 10:49:43;;;;;;;11.30;3.75;;;;;;;;;;6164658;28;20426;-61
2022/09/28 10:52:45;;;;;;;7.10;4.32;;;;;;;;;;6154809;28;20047;-59
2022/09/28 10:55:58;;;;;;;7.60;3.63;;;;;;;;;;6157919;28;20050;-61
2022/09/28 10:58:59;;;;;;;7.03;3.80;;;;;;;;;;6160647;28;20051;-58
2022/09/28 11:02:08;;;;;;;6.60;2.88;;;;;;;;;;6164642;28;20668;-62
2022/09/28 11:05:20;;;;;;;6.68;3.53;;;;;;;;;;6176232;28;20046;-61
2022/09/28 11:08:27;;;;;;;4.53;2.22;;;;;;;;;;6165793;28;20046;-58
2022/09/28 11:11:30;;;;;;;5.95;2.40;;;;;;;;;;6161275;28;20193;-56
2022/09/28 11:14:37;;;;;;;7.18;2.28;;;;;;;;;;6159126;28;20039;-62
2022/09/28 11:17:42;;;;;;;6.18;2.50;;;;;;;;;;6156301;28;20153;-56
2022/09/28 11:20:43;;;;;;;6.82;2.88;;;;;;;;;;6154611;28;20050;-60
2022/09/28 11:24:01;;;;;;;10.27;4.13;;;;;;;;;;6165330;28;20043;-62
2022/09/28 11:27:01;;;;;;;9.13;2.60;;;;;;;;;;6159114;28;20058;-56
2022/09/28 11:30:03;;;;;;;9.95;2.47;;;;;;;;;;6155639;28;20059;-63
2022/09/28 11:33:10;;;;;;;6.88;2.72;;;;;;;;;;6158796;28;20074;-62
2022/09/28 11:36:15;;;;;;;7.28;2.55;;;;;;;;;;6157660;28;20077;-62
2022/09/28 11:39:26;;;;;;;6.85;2.30;;;;;;;;;;6157663;28;20050;-57
2022/09/28 11:42:42;;;;;;;6.78;2.50;;;;;;;;;;6158148;28;20054;-54
2022/09/28 11:45:49;;;;;;;5.55;1.90;;;;;;;;;;6158502;28;20051;-56
2022/09/28 11:49:03;;;;;;;10.88;3.95;;;;;;;;;;6157389;28;20038;-56
2022/09/28 11:52:39;;;;;;;12.32;2.55;;;;;;;;;;6171645;28;20089;-57
2022/09/28 11:56:08;;;;;;;5.80;2.20;;;;;;;;;;6159319;28;20078;-58
2022/09/28 11:59:30;;;;;;;6.28;1.48;;;;;;;;;;6158606;28;20078;-55
2022/09/28 12:02:38;;;;;;;9.18;3.17;;;;;;;;;;6164956;28;20142;-58
2022/09/28 12:05:50;;;;;;;9.10;1.98;;;;;;;;;;6161748;28;20054;-58
2022/09/28 12:09:02;;;;;;;6.30;2.10;;;;;;;;;;6160318;28;20238;-57
2022/09/28 12:12:15;;;;;;;6.25;2.97;;;;;;;;;;6158148;28;20565;-57
2022/09/28 12:15:26;;;;;;;7.22;2.63;;;;;;;;;;6162137;28;20756;-56
2022/09/28 12:18:38;;;;;;;8.05;2.97;;;;;;;;;;6157821;28;20079;-60
2022/09/28 12:21:46;;;;;;;8.05;3.35;;;;;;;;;;6157258;28;20145;-58
2022/09/28 12:24:50;;;;;;;11.48;4.80;;;;;;;;;;6156051;28;20055;-60
2022/09/28 12:27:59;;;;;;;7.63;3.70;;;;;;;;;;6153591;28;20050;-56
2022/09/28 12:31:11;;;;;;;11.48;5.07;;;;;;;;;;6157815;28;20658;-53
2022/09/28 12:34:12;;;;;;;9.68;3.47;;;;;;;;;;6156676;28;20093;-58
2022/09/28 12:37:24;;;;;;;5.97;2.80;;;;;;;;;;6158854;28;20047;-55
2022/09/28 12:40:50;;;;;;;19.33;7.85;;;;;;;;;;6156042;28;20134;-58
2022/09/28 12:44:12;;;;;;;57.95;25.02;;;;;;;;;;6159642;28;20061;-61
2022/09/28 12:47:34;;;;;;;12.18;4.65;;;;;;;;;;6155673;28;20149;-55
2022/09/28 12:50:36;;;;;;;8.55;3.78;;;;;;;;;;6156893;28;20054;-56
2022/09/28 12:54:03;;;;;;;8.30;2.90;;;;;;;;;;6157678;28;20532;-56
2022/09/28 12:57:06;;;;;;;7.00;2.92;;;;;;;;;;6158001;28;20101;-58
2022/09/28 13:00:14;;;;;;;8.30;3.35;;;;;;;;;;6159496;28;20055;-59
2022/09/28 13:03:51;;;;;;;9.10;3.60;;;;;;;;;;6163934;28;20042;-58
2022/09/28 13:06:52;;;;;;;10.23;4.50;;;;;;;;;;6164035;28;20137;-61
2022/09/28 13:10:19;;;;;;;8.93;3.85;;;;;;;;;;6168184;28;20057;-58
2022/09/28 13:13:38;;;;;;;19.75;9.18;;;;;;;;;;6167810;28;20145;-58
2022/09/28 13:17:02;;;;;;;13.52;6.85;;;;;;;;;;6166414;28;20047;-55
2022/09/28 13:20:11;;;;;;;6.50;3.15;;;;;;;;;;6168179;28;20098;-59
2022/09/28 13:23:24;;;;;;;9.10;3.78;;;;;;;;;;6166538;28;20034;-56
2022/09/28 13:26:30;;;;;;;9.25;4.20;;;;;;;;;;6167901;28;20158;-60
2022/09/28 13:29:33;;;;;;;7.47;3.58;;;;;;;;;;6167798;28;20502;-56
2022/09/28 13:32:36;;;;;;;9.25;4.43;;;;;;;;;;6166687;28;20512;-62
2022/09/28 13:35:42;;;;;;;8.13;4.65;;;;;;;;;;6168280;28;20049;-58
2022/09/28 13:38:48;;;;;;;15.38;6.55;;;;;;;;;;6168534;28;20141;-59
2022/09/28 13:41:49;;;;;;;12.27;5.32;;;;;;;;;;6167536;28;20045;-61
2022/09/28 13:45:08;;;;;;;18.47;6.90;;;;;;;;;;6150339;28;20168;-55
2022/09/28 13:48:33;;;;;;;19.00;6.65;;;;;;;;;;6144440;28;20145;-58
2022/09/28 13:51:46;;;;;;;104.82;28.55;;;;;;;;;;6140019;28;20059;-61
2022/09/28 13:54:54;;;;;;;67.93;19.88;;;;;;;;;;6141898;28;20106;-64
2022/09/28 13:58:03;;;;;;;133.15;36.92;;;;;;;;;;6140084;28;20047;-59
2022/09/28 14:01:10;;;;;;;127.63;38.00;;;;;;;;;;6141265;28;20071;-60
2022/09/28 14:04:18;;;;;;;61.67;17.75;;;;;;;;;;6141823;29;20089;-60
2022/09/28 14:07:23;;;;;;;20.95;7.40;;;;;;;;;;6139165;29;20051;-65
2022/09/28 14:10:45;;;;;;;46.35;14.10;;;;;;;;;;6141524;28;20047;-61
2022/09/28 14:14:07;;;;;;;27.35;8.23;;;;;;;;;;6140910;28;20178;-60
2022/09/28 14:17:34;;;;;;;18.02;6.00;;;;;;;;;;6139964;28;20051;-60
2022/09/28 14:20:35;;;;;;;26.88;7.82;;;;;;;;;;6142481;28;20054;-57
2022/09/28 14:23:49;;;;;;;16.13;6.10;;;;;;;;;;6143118;28;20043;-57
2022/09/28 14:27:26;;;;;;;28.95;9.77;;;;;;;;;;6141950;28;20055;-60
2022/09/28 14:30:45;;;;;;;34.97;9.48;;;;;;;;;;6147110;28;20086;-70
2022/09/28 14:33:57;;;;;;;42.15;13.07;;;;;;;;;;6145079;28;20039;-56
2022/09/28 14:43:43;;;;;;;32.03;11.50;;;;;;;;;;6153798;28;20133;-60
2022/09/28 14:46:45;;;;;;;15.45;5.18;;;;;;;;;;6167194;28;20049;-58
2022/09/28 14:49:46;;;;;;;;;;;;;;;;;;6165881;28;20482;-60
2022/09/28 14:52:53;;;;;;;43.85;12.75;;;;;;;;;;6166815;28;19937;-58
2022/09/28 14:55:57;;;;;;;16.40;4.78;;;;;;;;;;6166971;28;20074;-58
2022/09/28 14:58:57;;;;;;;6.95;2.85;;;;;;;;;;6163372;28;20088;-56
2022/09/28 15:02:15;;;;;;;30.58;7.75;;;;;;;;;;6165761;28;20054;-57
2022/09/28 15:05:27;;;;;;;9.65;3.50;;;;;;;;;;6165187;28;20082;-55
2022/09/28 15:08:36;;;;;;;9.77;2.50;;;;;;;;;;6166457;28;20054;-63
2022/09/28 15:11:38;;;;;;;27.33;8.63;;;;;;;;;;6163181;28;20308;-57
2022/09/28 15:14:52;;;;;;;39.70;12.65;;;;;;;;;;6166053;28;20129;-58
2022/09/28 15:18:18;;;;;;;21.48;8.90;;;;;;;;;;6165051;28;20134;-58
2022/09/28 15:21:19;;;;;;;31.23;10.68;;;;;;;;;;6154125;28;20142;-56
2022/09/28 15:24:32;;;;;;;13.20;7.07;;;;;;;;;;6166948;28;20043;-59
2022/09/28 15:27:37;;;;;;;21.40;7.03;;;;;;;;;;6167126;28;20039;-57
2022/09/28 15:30:37;;;;;;;17.30;6.32;;;;;;;;;;6166845;28;20137;-55
2022/09/28 15:36:59;;;;;;;13.18;4.93;;;;;;;;;;6170532;28;20058;-56
2022/09/28 15:40:01;;;;;;;8.35;4.03;;;;;;;;;;6167002;28;20035;-58
2022/09/28 15:43:22;;;;;;;7.72;3.28;;;;;;;;;;6166438;28;20410;-65
2022/09/28 15:46:27;;;;;;;10.70;3.97;;;;;;;;;;6147635;28;20165;-60
2022/09/28 15:49:45;;;;;;;12.30;6.15;;;;;;;;;;6156232;28;20047;-54
2022/09/28 15:52:55;;;;;;;14.82;5.10;;;;;;;;;;6156233;28;20058;-58
2022/09/28 15:56:02;;;;;;;12.38;7.03;;;;;;;;;;6153328;28;20672;-59
2022/09/28 15:59:20;;;;;;;16.63;6.85;;;;;;;;;;6153897;28;20097;-57
2022/09/28 16:02:21;;;;;;;8.43;3.58;;;;;;;;;;6159039;28;20046;-56
2022/09/28 16:05:34;;;;;;;7.73;3.23;;;;;;;;;;6165490;28;21239;-55
2022/09/28 16:08:34;;;;;;;13.93;3.70;;;;;;;;;;6165552;28;20047;-56
2022/09/28 16:11:39;;;;;;;13.60;4.68;;;;;;;;;;6169792;28;20049;-57
2022/09/28 16:14:39;;;;;;;15.35;6.32;;;;;;;;;;6176220;28;20058;-58
2022/09/28 16:17:40;;;;;;;14.75;6.15;;;;;;;;;;6171802;28;20109;-58
2022/09/28 16:20:42;;;;;;;15.13;5.78;;;;;;;;;;6170701;28;20089;-57
2022/09/28 16:23:50;;;;;;;12.30;4.80;;;;;;;;;;6171554;28;20098;-58
2022/09/28 16:27:06;;;;;;;19.88;6.43;;;;;;;;;;6171573;28;20054;-56
2022/09/28 16:30:22;;;;;;;22.33;8.40;;;;;;;;;;6178954;28;20047;-56
2022/09/28 16:33:27;;;;;;;23.85;8.80;;;;;;;;;;6157997;28;20046;-57
2022/09/28 16:36:42;;;;;;;15.07;5.95;;;;;;;;;;6171429;28;20153;-56
2022/09/28 16:39:42;;;;;;;17.33;6.38;;;;;;;;;;6171497;28;20086;-57
2022/09/28 16:42:44;;;;;;;16.77;6.20;;;;;;;;;;6172075;28;20051;-57
2022/09/28 16:45:45;;;;;;;28.48;9.30;;;;;;;;;;6186154;28;20047;-59
2022/09/28 16:48:48;;;;;;;15.32;6.30;;;;;;;;;;6186826;28;20097;-54
2022/09/28 16:51:48;;;;;;;17.23;7.85;;;;;;;;;;6193141;28;20140;-62
2022/09/28 16:58:10;;;;;;;18.02;10.10;;;;;;;;;;6195174;28;20055;-57
2022/09/28 17:01:11;;;;;;;55.42;23.80;;;;;;;;;;6180859;28;20062;-57
2022/09/28 17:04:11;;;;;;;34.95;20.80;;;;;;;;;;6178932;28;20045;-57
2022/09/28 17:07:13;;;;;;;28.58;17.17;;;;;;;;;;6193584;28;20532;-56
2022/09/28 17:10:24;;;;;;;21.27;11.75;;;;;;;;;;6191279;28;20406;-58
2022/09/28 17:13:32;;;;;;;17.55;9.38;;;;;;;;;;6193807;28;20042;-62
2022/09/28 17:16:33;;;;;;;21.40;10.20;;;;;;;;;;6193677;28;20085;-59
2022/09/28 17:19:33;;;;;;;22.63;10.50;;;;;;;;;;6194696;28;20058;-58
2022/09/28 17:22:34;;;;;;;19.17;8.02;;;;;;;;;;6191013;28;20042;-59
2022/09/28 17:25:36;;;;;;;19.40;9.63;;;;;;;;;;6191902;28;20673;-58
2022/09/28 17:28:37;;;;;;;24.05;12.57;;;;;;;;;;6194249;28;20047;-57
2022/09/28 17:31:38;;;;;;;18.63;8.40;;;;;;;;;;6180957;28;20150;-57
2022/09/28 17:34:38;;;;;;;15.57;8.80;;;;;;;;;;6192076;28;20043;-57
2022/09/28 17:37:39;;;;;;;17.27;8.50;;;;;;;;;;6171492;28;20086;-58
2022/09/28 17:40:42;;;;;;;19.17;10.35;;;;;;;;;;6162654;28;20061;-59
2022/09/28 17:43:43;;;;;;;19.88;8.40;;;;;;;;;;6161186;28;20141;-60
2022/09/28 17:46:47;;;;;;;18.40;8.70;;;;;;;;;;6157933;28;20047;-56
2022/09/28 17:49:49;;;;;;;18.25;9.35;;;;;;;;;;6158979;28;20043;-57
2022/09/28 17:52:51;;;;;;;23.00;10.10;;;;;;;;;;6156013;28;20454;-56
2022/09/28 17:55:52;;;;;;;32.03;15.05;;;;;;;;;;6154590;28;20109;-56
2022/09/28 17:58:53;;;;;;;119.80;73.70;;;;;;;;;;6147955;28;20384;-61
2022/09/28 18:01:53;;;;;;;58.88;33.10;;;;;;;;;;6152297;28;20067;-59
2022/09/28 18:04:54;;;;;;;38.30;22.70;;;;;;;;;;6152293;28;20067;-55
2022/09/28 18:07:56;;;;;;;17.10;8.05;;;;;;;;;;6152752;28;20170;-58
2022/09/28 18:10:57;;;;;;;;;;;;;;;;;;6153932;28;20054;-60
2022/09/28 18:13:58;;;;;;;14.55;6.53;;;;;;;;;;6153632;28;19930;-60
2022/09/28 18:16:58;;;;;;;16.80;6.70;;;;;;;;;;6154163;28;21162;-58
2022/09/28 18:19:59;;;;;;;15.52;6.55;;;;;;;;;;6145703;28;21203;-56
2022/09/28 18:22:59;;;;;;;19.02;6.70;;;;;;;;;;6146858;28;21029;-59
2022/09/28 18:26:00;;;;;;;18.45;7.65;;;;;;;;;;6148463;28;20618;-57
2022/09/28 18:29:00;;;;;;;17.45;8.18;;;;;;;;;;6150027;28;20054;-55
2022/09/28 18:32:01;;;;;;;21.80;10.13;;;;;;;;;;6154261;28;20055;-59
2022/09/28 18:35:04;;;;;;;33.25;13.38;;;;;;;;;;6153817;28;20045;-61
2022/09/28 18:38:05;;;;;;;34.83;14.63;;;;;;;;;;6152241;28;20062;-62
2022/09/28 18:41:14;;;;;;;39.33;16.92;;;;;;;;;;6154336;28;20047;-60